sensor_id;sensor_type;location;lat;lon;timestamp;P1;durP1;ratioP1;P2;durP2;ratioP2
64457;SDS011;58438;51.200;7.252;2022-08-04T00:00:02;7.78;;;2.80;;
64457;SDS011;58438;51.200;7.252;2022-08-04T00:02:58;6.05;;;2.92;;
64457;SDS011;58438;51.200;7.252;2022-08-04T00:05:52;7.78;;;2.75;;
64457;SDS011;58438;51.200;7.252;2022-08-04T00:08:43;7.87;;;2.73;;
64457;SDS011;58438;51.200;7.252;2022-08-04T00:11:33;5.95;;;2.97;;
64457;SDS011;58438;51.200;7.252;2022-08-04T00:14:23;8.45;;;3.35;;
64457;SDS011;58438;51.200;7.252;2022-08-04T00:17:14;6.50;;;2.80;;
64457;SDS011;58438;51.200;7.252;2022-08-04T00:20:07;6.93;;;2.63;;
64457;SDS011;58438;51.200;7.252;2022-08-04T00:22:59;6.53;;;2.90;;
64457;SDS011;58438;51.200;7.252;2022-08-04T00:25:48;7.75;;;2.47;;
64457;SDS011;58438;51.200;7.252;2022-08-04T00:28:38;4.45;;;2.25;;
64457;SDS011;58438;51.200;7.252;2022-08-04T00:31:28;5.57;;;2.65;;
64457;SDS011;58438;51.200;7.252;2022-08-04T00:34:40;8.55;;;2.83;;
64457;SDS011;58438;51.200;7.252;2022-08-04T00:37:30;6.38;;;2.63;;
64457;SDS011;58438;51.200;7.252;2022-08-04T00:40:23;7.10;;;3.08;;
64457;SDS011;58438;51.200;7.252;2022-08-04T00:43:16;8.00;;;2.72;;
64457;SDS011;58438;51.200;7.252;2022-08-04T00:46:20;6.65;;;2.45;;
64457;SDS011;58438;51.200;7.252;2022-08-04T00:49:18;10.05;;;2.78;;
64457;SDS011;58438;51.200;7.252;2022-08-04T00:52:16;5.28;;;2.58;;
64457;SDS011;58438;51.200;7.252;2022-08-04T00:55:23;5.97;;;2.80;;
64457;SDS011;58438;51.200;7.252;2022-08-04T00:58:19;8.50;;;3.60;;
64457;SDS011;58438;51.200;7.252;2022-08-04T01:01:11;6.55;;;2.92;;
64457;SDS011;58438;51.200;7.252;2022-08-04T01:04:02;8.77;;;3.47;;
64457;SDS011;58438;51.200;7.252;2022-08-04T01:06:53;7.28;;;3.20;;
64457;SDS011;58438;51.200;7.252;2022-08-04T01:09:49;8.25;;;3.42;;
64457;SDS011;58438;51.200;7.252;2022-08-04T01:12:45;10.50;;;3.75;;
64457;SDS011;58438;51.200;7.252;2022-08-04T01:15:39;7.85;;;3.17;;
64457;SDS011;58438;51.200;7.252;2022-08-04T01:18:47;8.75;;;3.50;;
64457;SDS011;58438;51.200;7.252;2022-08-04T01:21:50;6.93;;;3.25;;
64457;SDS011;58438;51.200;7.252;2022-08-04T01:24:50;8.38;;;3.15;;
64457;SDS011;58438;51.200;7.252;2022-08-04T01:27:48;8.75;;;3.72;;
64457;SDS011;58438;51.200;7.252;2022-08-04T01:30:46;6.88;;;3.35;;
64457;SDS011;58438;51.200;7.252;2022-08-04T01:33:34;7.53;;;4.00;;
64457;SDS011;58438;51.200;7.252;2022-08-04T01:36:44;9.57;;;3.85;;
64457;SDS011;58438;51.200;7.252;2022-08-04T01:39:49;9.85;;;3.67;;
64457;SDS011;58438;51.200;7.252;2022-08-04T01:42:37;7.75;;;3.97;;
64457;SDS011;58438;51.200;7.252;2022-08-04T01:45:25;7.65;;;4.05;;
64457;SDS011;58438;51.200;7.252;2022-08-04T01:48:15;7.38;;;4.20;;
64457;SDS011;58438;51.200;7.252;2022-08-04T01:51:04;6.95;;;3.70;;
64457;SDS011;58438;51.200;7.252;2022-08-04T01:53:51;6.43;;;4.15;;
64457;SDS011;58438;51.200;7.252;2022-08-04T01:56:38;5.03;;;4.10;;
64457;SDS011;58438;51.200;7.252;2022-08-04T01:59:27;6.43;;;3.90;;
64457;SDS011;58438;51.200;7.252;2022-08-04T02:02:16;6.68;;;3.55;;
64457;SDS011;58438;51.200;7.252;2022-08-04T02:05:06;7.10;;;4.00;;
64457;SDS011;58438;51.200;7.252;2022-08-04T02:08:00;6.18;;;4.50;;
64457;SDS011;58438;51.200;7.252;2022-08-04T02:10:56;7.20;;;3.75;;
64457;SDS011;58438;51.200;7.252;2022-08-04T02:13:50;7.53;;;4.03;;
64457;SDS011;58438;51.200;7.252;2022-08-04T02:16:42;8.55;;;4.18;;
64457;SDS011;58438;51.200;7.252;2022-08-04T02:19:40;5.38;;;4.13;;
64457;SDS011;58438;51.200;7.252;2022-08-04T02:22:34;8.18;;;4.03;;
64457;SDS011;58438;51.200;7.252;2022-08-04T02:25:25;6.70;;;3.60;;
64457;SDS011;58438;51.200;7.252;2022-08-04T02:28:20;5.97;;;3.72;;
64457;SDS011;58438;51.200;7.252;2022-08-04T02:31:18;7.47;;;4.13;;
64457;SDS011;58438;51.200;7.252;2022-08-04T02:34:08;7.60;;;3.90;;
64457;SDS011;58438;51.200;7.252;2022-08-04T02:36:58;8.02;;;3.92;;
64457;SDS011;58438;51.200;7.252;2022-08-04T02:39:47;7.28;;;3.60;;
64457;SDS011;58438;51.200;7.252;2022-08-04T02:42:38;5.80;;;3.90;;
64457;SDS011;58438;51.200;7.252;2022-08-04T02:45:25;5.15;;;4.00;;
64457;SDS011;58438;51.200;7.252;2022-08-04T02:48:12;8.65;;;4.28;;
64457;SDS011;58438;51.200;7.252;2022-08-04T02:51:28;7.30;;;4.07;;
64457;SDS011;58438;51.200;7.252;2022-08-04T02:54:16;9.77;;;4.85;;
64457;SDS011;58438;51.200;7.252;2022-08-04T02:57:18;15.63;;;5.00;;
64457;SDS011;58438;51.200;7.252;2022-08-04T03:00:09;10.15;;;5.30;;
64457;SDS011;58438;51.200;7.252;2022-08-04T03:03:01;6.93;;;4.45;;
64457;SDS011;58438;51.200;7.252;2022-08-04T03:05:55;8.35;;;4.97;;
64457;SDS011;58438;51.200;7.252;2022-08-04T03:11:41;8.02;;;4.88;;
64457;SDS011;58438;51.200;7.252;2022-08-04T03:14:45;8.13;;;4.20;;
64457;SDS011;58438;51.200;7.252;2022-08-04T03:20:44;7.97;;;4.03;;
64457;SDS011;58438;51.200;7.252;2022-08-04T03:23:50;9.23;;;4.80;;
64457;SDS011;58438;51.200;7.252;2022-08-04T03:26:53;6.80;;;4.68;;
64457;SDS011;58438;51.200;7.252;2022-08-04T03:29:53;7.38;;;4.50;;
64457;SDS011;58438;51.200;7.252;2022-08-04T03:33:01;5.90;;;4.07;;
64457;SDS011;58438;51.200;7.252;2022-08-04T03:39:24;6.72;;;4.32;;
64457;SDS011;58438;51.200;7.252;2022-08-04T03:42:30;6.30;;;4.32;;
64457;SDS011;58438;51.200;7.252;2022-08-04T03:45:39;5.55;;;4.43;;
64457;SDS011;58438;51.200;7.252;2022-08-04T03:48:41;6.57;;;4.43;;
64457;SDS011;58438;51.200;7.252;2022-08-04T03:51:35;10.02;;;4.78;;
64457;SDS011;58438;51.200;7.252;2022-08-04T03:54:50;6.95;;;4.60;;
64457;SDS011;58438;51.200;7.252;2022-08-04T03:57:51;5.05;;;4.13;;
64457;SDS011;58438;51.200;7.252;2022-08-04T04:00:45;7.90;;;4.22;;
64457;SDS011;58438;51.200;7.252;2022-08-04T04:03:40;6.68;;;4.68;;
64457;SDS011;58438;51.200;7.252;2022-08-04T04:06:40;7.88;;;5.10;;
64457;SDS011;58438;51.200;7.252;2022-08-04T04:09:46;8.10;;;4.60;;
64457;SDS011;58438;51.200;7.252;2022-08-04T04:13:01;8.40;;;4.75;;
64457;SDS011;58438;51.200;7.252;2022-08-04T04:16:06;6.72;;;4.38;;
64457;SDS011;58438;51.200;7.252;2022-08-04T04:19:11;7.32;;;4.40;;
64457;SDS011;58438;51.200;7.252;2022-08-04T04:22:07;7.65;;;4.88;;
64457;SDS011;58438;51.200;7.252;2022-08-04T04:27:49;7.55;;;4.90;;
64457;SDS011;58438;51.200;7.252;2022-08-04T04:30:39;6.40;;;4.53;;
64457;SDS011;58438;51.200;7.252;2022-08-04T04:33:36;6.72;;;4.57;;
64457;SDS011;58438;51.200;7.252;2022-08-04T04:36:24;5.60;;;4.53;;
64457;SDS011;58438;51.200;7.252;2022-08-04T04:39:19;5.57;;;4.47;;
64457;SDS011;58438;51.200;7.252;2022-08-04T04:42:14;5.28;;;4.70;;
64457;SDS011;58438;51.200;7.252;2022-08-04T04:45:14;8.25;;;4.60;;
64457;SDS011;58438;51.200;7.252;2022-08-04T04:48:06;6.18;;;4.38;;
64457;SDS011;58438;51.200;7.252;2022-08-04T04:51:01;6.95;;;4.85;;
64457;SDS011;58438;51.200;7.252;2022-08-04T04:53:53;7.32;;;4.18;;
64457;SDS011;58438;51.200;7.252;2022-08-04T04:56:46;6.40;;;4.47;;
64457;SDS011;58438;51.200;7.252;2022-08-04T04:59:35;5.32;;;4.45;;
64457;SDS011;58438;51.200;7.252;2022-08-04T05:02:35;8.75;;;5.10;;
64457;SDS011;58438;51.200;7.252;2022-08-04T05:05:26;9.38;;;5.70;;
64457;SDS011;58438;51.200;7.252;2022-08-04T05:08:20;9.07;;;5.70;;
64457;SDS011;58438;51.200;7.252;2022-08-04T05:14:17;10.27;;;5.72;;
64457;SDS011;58438;51.200;7.252;2022-08-04T05:17:25;7.03;;;5.10;;
64457;SDS011;58438;51.200;7.252;2022-08-04T05:20:13;6.57;;;4.82;;
64457;SDS011;58438;51.200;7.252;2022-08-04T05:23:02;6.45;;;5.20;;
64457;SDS011;58438;51.200;7.252;2022-08-04T05:25:55;5.70;;;5.00;;
64457;SDS011;58438;51.200;7.252;2022-08-04T05:28:47;7.85;;;5.78;;
64457;SDS011;58438;51.200;7.252;2022-08-04T05:31:35;7.53;;;4.75;;
64457;SDS011;58438;51.200;7.252;2022-08-04T05:34:25;7.63;;;4.93;;
64457;SDS011;58438;51.200;7.252;2022-08-04T05:37:14;5.10;;;4.28;;
64457;SDS011;58438;51.200;7.252;2022-08-04T05:40:03;8.05;;;4.82;;
64457;SDS011;58438;51.200;7.252;2022-08-04T05:42:51;7.20;;;4.90;;
64457;SDS011;58438;51.200;7.252;2022-08-04T05:45:40;6.90;;;5.25;;
64457;SDS011;58438;51.200;7.252;2022-08-04T05:48:27;7.82;;;4.88;;
64457;SDS011;58438;51.200;7.252;2022-08-04T05:51:15;6.82;;;4.47;;
64457;SDS011;58438;51.200;7.252;2022-08-04T05:54:03;7.50;;;5.05;;
64457;SDS011;58438;51.200;7.252;2022-08-04T05:56:51;6.07;;;5.05;;
64457;SDS011;58438;51.200;7.252;2022-08-04T05:59:41;10.45;;;5.00;;
64457;SDS011;58438;51.200;7.252;2022-08-04T06:02:31;6.65;;;5.00;;
64457;SDS011;58438;51.200;7.252;2022-08-04T06:05:19;6.20;;;4.82;;
64457;SDS011;58438;51.200;7.252;2022-08-04T06:08:08;8.27;;;5.20;;
64457;SDS011;58438;51.200;7.252;2022-08-04T06:11:01;7.15;;;5.18;;
64457;SDS011;58438;51.200;7.252;2022-08-04T06:13:50;5.70;;;4.57;;
64457;SDS011;58438;51.200;7.252;2022-08-04T06:16:40;6.68;;;4.63;;
64457;SDS011;58438;51.200;7.252;2022-08-04T06:19:36;4.80;;;4.20;;
64457;SDS011;58438;51.200;7.252;2022-08-04T06:22:46;7.63;;;5.22;;
64457;SDS011;58438;51.200;7.252;2022-08-04T06:25:37;5.57;;;4.25;;
64457;SDS011;58438;51.200;7.252;2022-08-04T06:28:26;5.45;;;4.28;;
64457;SDS011;58438;51.200;7.252;2022-08-04T06:31:16;5.75;;;4.78;;
64457;SDS011;58438;51.200;7.252;2022-08-04T06:34:38;5.45;;;4.82;;
64457;SDS011;58438;51.200;7.252;2022-08-04T06:37:27;5.38;;;4.85;;
64457;SDS011;58438;51.200;7.252;2022-08-04T06:40:28;7.22;;;4.40;;
64457;SDS011;58438;51.200;7.252;2022-08-04T06:43:18;5.57;;;4.63;;
64457;SDS011;58438;51.200;7.252;2022-08-04T06:46:09;7.30;;;4.68;;
64457;SDS011;58438;51.200;7.252;2022-08-04T06:48:57;5.13;;;4.40;;
64457;SDS011;58438;51.200;7.252;2022-08-04T06:51:47;5.55;;;4.40;;
64457;SDS011;58438;51.200;7.252;2022-08-04T06:54:36;5.15;;;4.15;;
64457;SDS011;58438;51.200;7.252;2022-08-04T06:57:25;5.75;;;4.18;;
64457;SDS011;58438;51.200;7.252;2022-08-04T07:00:13;5.82;;;4.40;;
64457;SDS011;58438;51.200;7.252;2022-08-04T07:03:02;6.35;;;4.88;;
64457;SDS011;58438;51.200;7.252;2022-08-04T07:05:52;4.82;;;4.10;;
64457;SDS011;58438;51.200;7.252;2022-08-04T07:08:42;4.68;;;4.15;;
64457;SDS011;58438;51.200;7.252;2022-08-04T07:11:30;5.53;;;4.72;;
64457;SDS011;58438;51.200;7.252;2022-08-04T07:14:29;5.70;;;4.63;;
64457;SDS011;58438;51.200;7.252;2022-08-04T07:17:19;5.45;;;3.88;;
64457;SDS011;58438;51.200;7.252;2022-08-04T07:20:15;5.07;;;4.15;;
64457;SDS011;58438;51.200;7.252;2022-08-04T07:23:22;5.25;;;4.07;;
64457;SDS011;58438;51.200;7.252;2022-08-04T07:26:12;5.38;;;4.20;;
64457;SDS011;58438;51.200;7.252;2022-08-04T07:29:02;5.25;;;3.80;;
64457;SDS011;58438;51.200;7.252;2022-08-04T07:31:50;6.57;;;3.88;;
64457;SDS011;58438;51.200;7.252;2022-08-04T07:34:40;5.18;;;4.40;;
64457;SDS011;58438;51.200;7.252;2022-08-04T07:37:34;5.53;;;4.43;;
64457;SDS011;58438;51.200;7.252;2022-08-04T07:40:24;4.47;;;4.07;;
64457;SDS011;58438;51.200;7.252;2022-08-04T07:43:14;4.55;;;4.13;;
64457;SDS011;58438;51.200;7.252;2022-08-04T07:46:02;5.90;;;4.00;;
64457;SDS011;58438;51.200;7.252;2022-08-04T07:48:49;5.38;;;3.80;;
64457;SDS011;58438;51.200;7.252;2022-08-04T07:51:37;5.60;;;4.30;;
64457;SDS011;58438;51.200;7.252;2022-08-04T07:54:24;6.28;;;4.35;;
64457;SDS011;58438;51.200;7.252;2022-08-04T07:57:12;5.40;;;4.32;;
64457;SDS011;58438;51.200;7.252;2022-08-04T08:00:20;5.53;;;4.13;;
64457;SDS011;58438;51.200;7.252;2022-08-04T08:03:08;4.93;;;3.80;;
64457;SDS011;58438;51.200;7.252;2022-08-04T08:05:56;4.68;;;4.18;;
64457;SDS011;58438;51.200;7.252;2022-08-04T08:09:05;5.65;;;4.03;;
64457;SDS011;58438;51.200;7.252;2022-08-04T08:11:59;5.93;;;4.30;;
64457;SDS011;58438;51.200;7.252;2022-08-04T08:15:08;5.35;;;4.18;;
64457;SDS011;58438;51.200;7.252;2022-08-04T08:17:59;4.72;;;3.83;;
64457;SDS011;58438;51.200;7.252;2022-08-04T08:20:46;5.65;;;4.38;;
64457;SDS011;58438;51.200;7.252;2022-08-04T08:23:34;7.70;;;4.20;;
64457;SDS011;58438;51.200;7.252;2022-08-04T08:26:21;7.10;;;4.63;;
64457;SDS011;58438;51.200;7.252;2022-08-04T08:29:08;5.13;;;4.10;;
64457;SDS011;58438;51.200;7.252;2022-08-04T08:31:55;5.88;;;3.88;;
64457;SDS011;58438;51.200;7.252;2022-08-04T08:34:53;5.10;;;3.60;;
64457;SDS011;58438;51.200;7.252;2022-08-04T08:37:42;4.70;;;3.70;;
64457;SDS011;58438;51.200;7.252;2022-08-04T08:40:32;6.53;;;3.85;;
64457;SDS011;58438;51.200;7.252;2022-08-04T08:43:33;6.15;;;3.58;;
64457;SDS011;58438;51.200;7.252;2022-08-04T08:46:44;4.43;;;3.83;;
64457;SDS011;58438;51.200;7.252;2022-08-04T08:49:43;5.22;;;3.70;;
64457;SDS011;58438;51.200;7.252;2022-08-04T08:52:54;4.65;;;4.05;;
64457;SDS011;58438;51.200;7.252;2022-08-04T08:55:51;4.90;;;3.65;;
64457;SDS011;58438;51.200;7.252;2022-08-04T08:58:45;4.97;;;3.70;;
64457;SDS011;58438;51.200;7.252;2022-08-04T09:01:42;4.90;;;3.97;;
64457;SDS011;58438;51.200;7.252;2022-08-04T09:04:48;5.72;;;3.67;;
64457;SDS011;58438;51.200;7.252;2022-08-04T09:07:45;4.65;;;3.38;;
64457;SDS011;58438;51.200;7.252;2022-08-04T09:10:38;5.57;;;3.63;;
64457;SDS011;58438;51.200;7.252;2022-08-04T09:13:29;7.28;;;3.72;;
64457;SDS011;58438;51.200;7.252;2022-08-04T09:16:20;6.00;;;3.80;;
64457;SDS011;58438;51.200;7.252;2022-08-04T09:19:09;6.25;;;3.88;;
64457;SDS011;58438;51.200;7.252;2022-08-04T09:22:19;5.18;;;3.22;;
64457;SDS011;58438;51.200;7.252;2022-08-04T09:25:10;8.73;;;3.83;;
64457;SDS011;58438;51.200;7.252;2022-08-04T09:28:01;4.97;;;4.00;;
64457;SDS011;58438;51.200;7.252;2022-08-04T09:30:56;5.85;;;3.63;;
64457;SDS011;58438;51.200;7.252;2022-08-04T09:33:46;5.60;;;3.50;;
64457;SDS011;58438;51.200;7.252;2022-08-04T09:36:38;5.63;;;3.10;;
64457;SDS011;58438;51.200;7.252;2022-08-04T09:39:28;5.95;;;3.60;;
64457;SDS011;58438;51.200;7.252;2022-08-04T09:42:19;6.07;;;3.10;;
64457;SDS011;58438;51.200;7.252;2022-08-04T09:45:14;5.38;;;2.97;;
64457;SDS011;58438;51.200;7.252;2022-08-04T09:48:12;3.78;;;3.10;;
64457;SDS011;58438;51.200;7.252;2022-08-04T09:51:00;6.80;;;2.95;;
64457;SDS011;58438;51.200;7.252;2022-08-04T09:53:53;3.47;;;2.80;;
64457;SDS011;58438;51.200;7.252;2022-08-04T09:56:44;4.95;;;2.47;;
64457;SDS011;58438;51.200;7.252;2022-08-04T09:59:35;5.07;;;2.83;;
64457;SDS011;58438;51.200;7.252;2022-08-04T10:02:28;6.97;;;3.03;;
64457;SDS011;58438;51.200;7.252;2022-08-04T10:05:19;4.38;;;2.60;;
64457;SDS011;58438;51.200;7.252;2022-08-04T10:08:17;4.50;;;2.70;;
64457;SDS011;58438;51.200;7.252;2022-08-04T10:11:11;5.10;;;2.85;;
64457;SDS011;58438;51.200;7.252;2022-08-04T10:14:00;4.53;;;2.72;;
64457;SDS011;58438;51.200;7.252;2022-08-04T10:16:52;4.07;;;2.70;;
64457;SDS011;58438;51.200;7.252;2022-08-04T10:19:44;5.75;;;3.03;;
64457;SDS011;58438;51.200;7.252;2022-08-04T10:22:38;5.90;;;2.75;;
64457;SDS011;58438;51.200;7.252;2022-08-04T10:25:48;3.38;;;2.58;;
64457;SDS011;58438;51.200;7.252;2022-08-04T10:28:53;3.85;;;2.60;;
64457;SDS011;58438;51.200;7.252;2022-08-04T10:31:42;4.70;;;2.63;;
64457;SDS011;58438;51.200;7.252;2022-08-04T10:34:31;5.68;;;2.65;;
64457;SDS011;58438;51.200;7.252;2022-08-04T10:37:26;5.45;;;2.65;;
64457;SDS011;58438;51.200;7.252;2022-08-04T10:40:38;4.72;;;2.45;;
64457;SDS011;58438;51.200;7.252;2022-08-04T10:43:32;4.57;;;2.40;;
64457;SDS011;58438;51.200;7.252;2022-08-04T10:46:25;5.90;;;2.55;;
64457;SDS011;58438;51.200;7.252;2022-08-04T10:49:15;4.85;;;2.70;;
64457;SDS011;58438;51.200;7.252;2022-08-04T10:52:07;4.85;;;2.92;;
64457;SDS011;58438;51.200;7.252;2022-08-04T10:54:59;4.43;;;2.95;;
64457;SDS011;58438;51.200;7.252;2022-08-04T10:57:49;5.13;;;3.00;;
64457;SDS011;58438;51.200;7.252;2022-08-04T11:00:38;3.88;;;3.03;;
64457;SDS011;58438;51.200;7.252;2022-08-04T11:03:29;6.00;;;2.95;;
64457;SDS011;58438;51.200;7.252;2022-08-04T11:06:20;6.72;;;3.40;;
64457;SDS011;58438;51.200;7.252;2022-08-04T11:09:09;5.85;;;3.30;;
64457;SDS011;58438;51.200;7.252;2022-08-04T11:12:02;7.38;;;2.90;;
64457;SDS011;58438;51.200;7.252;2022-08-04T11:14:52;4.43;;;2.72;;
64457;SDS011;58438;51.200;7.252;2022-08-04T11:17:42;4.43;;;3.10;;
64457;SDS011;58438;51.200;7.252;2022-08-04T11:20:34;4.38;;;3.42;;
64457;SDS011;58438;51.200;7.252;2022-08-04T11:23:25;9.52;;;3.53;;
64457;SDS011;58438;51.200;7.252;2022-08-04T11:26:17;6.32;;;3.83;;
64457;SDS011;58438;51.200;7.252;2022-08-04T11:29:10;6.78;;;3.42;;
64457;SDS011;58438;51.200;7.252;2022-08-04T11:32:00;9.32;;;3.92;;
64457;SDS011;58438;51.200;7.252;2022-08-04T11:34:48;9.90;;;4.10;;
64457;SDS011;58438;51.200;7.252;2022-08-04T11:37:40;8.05;;;3.95;;
64457;SDS011;58438;51.200;7.252;2022-08-04T11:40:32;7.90;;;3.45;;
64457;SDS011;58438;51.200;7.252;2022-08-04T11:43:23;7.88;;;4.00;;
64457;SDS011;58438;51.200;7.252;2022-08-04T11:46:34;5.13;;;3.40;;
64457;SDS011;58438;51.200;7.252;2022-08-04T11:49:28;6.53;;;3.80;;
64457;SDS011;58438;51.200;7.252;2022-08-04T11:52:38;8.15;;;3.78;;
64457;SDS011;58438;51.200;7.252;2022-08-04T11:55:26;11.27;;;3.70;;
64457;SDS011;58438;51.200;7.252;2022-08-04T11:58:15;8.70;;;3.78;;
64457;SDS011;58438;51.200;7.252;2022-08-04T12:01:03;7.93;;;3.90;;
64457;SDS011;58438;51.200;7.252;2022-08-04T12:03:58;9.52;;;3.80;;
64457;SDS011;58438;51.200;7.252;2022-08-04T12:06:51;10.43;;;2.85;;
64457;SDS011;58438;51.200;7.252;2022-08-04T12:10:05;7.28;;;3.30;;
64457;SDS011;58438;51.200;7.252;2022-08-04T12:12:57;3.67;;;3.03;;
64457;SDS011;58438;51.200;7.252;2022-08-04T12:15:51;8.43;;;3.40;;
64457;SDS011;58438;51.200;7.252;2022-08-04T12:18:41;5.70;;;3.28;;
64457;SDS011;58438;51.200;7.252;2022-08-04T12:24:22;6.80;;;2.90;;
64457;SDS011;58438;51.200;7.252;2022-08-04T12:27:13;8.38;;;3.17;;
64457;SDS011;58438;51.200;7.252;2022-08-04T12:30:02;4.53;;;2.78;;
64457;SDS011;58438;51.200;7.252;2022-08-04T12:33:11;6.13;;;2.80;;
64457;SDS011;58438;51.200;7.252;2022-08-04T12:36:04;5.50;;;2.88;;
64457;SDS011;58438;51.200;7.252;2022-08-04T12:38:58;5.88;;;3.00;;
64457;SDS011;58438;51.200;7.252;2022-08-04T12:41:50;4.75;;;2.90;;
64457;SDS011;58438;51.200;7.252;2022-08-04T12:44:41;4.70;;;3.00;;
64457;SDS011;58438;51.200;7.252;2022-08-04T12:47:29;7.43;;;3.75;;
64457;SDS011;58438;51.200;7.252;2022-08-04T12:50:16;5.65;;;3.55;;
64457;SDS011;58438;51.200;7.252;2022-08-04T12:53:10;9.40;;;3.97;;
64457;SDS011;58438;51.200;7.252;2022-08-04T12:56:04;7.22;;;3.80;;
64457;SDS011;58438;51.200;7.252;2022-08-04T12:59:06;8.23;;;3.78;;
64457;SDS011;58438;51.200;7.252;2022-08-04T13:01:57;6.88;;;3.72;;
64457;SDS011;58438;51.200;7.252;2022-08-04T13:04:57;6.07;;;3.75;;
64457;SDS011;58438;51.200;7.252;2022-08-04T13:07:47;7.95;;;4.00;;
64457;SDS011;58438;51.200;7.252;2022-08-04T13:10:36;6.93;;;4.10;;
64457;SDS011;58438;51.200;7.252;2022-08-04T13:13:24;9.07;;;4.13;;
64457;SDS011;58438;51.200;7.252;2022-08-04T13:16:14;8.32;;;4.32;;
64457;SDS011;58438;51.200;7.252;2022-08-04T13:19:03;9.35;;;4.50;;
64457;SDS011;58438;51.200;7.252;2022-08-04T13:21:54;5.53;;;3.83;;
64457;SDS011;58438;51.200;7.252;2022-08-04T13:24:48;8.07;;;4.13;;
64457;SDS011;58438;51.200;7.252;2022-08-04T13:27:56;7.20;;;4.18;;
64457;SDS011;58438;51.200;7.252;2022-08-04T13:30:45;6.82;;;4.00;;
64457;SDS011;58438;51.200;7.252;2022-08-04T13:33:37;12.55;;;3.90;;
64457;SDS011;58438;51.200;7.252;2022-08-04T13:36:25;6.60;;;3.55;;
64457;SDS011;58438;51.200;7.252;2022-08-04T13:39:13;9.43;;;3.85;;
64457;SDS011;58438;51.200;7.252;2022-08-04T13:42:04;8.57;;;3.70;;
64457;SDS011;58438;51.200;7.252;2022-08-04T13:44:55;9.27;;;4.20;;
64457;SDS011;58438;51.200;7.252;2022-08-04T13:47:43;7.55;;;4.00;;
64457;SDS011;58438;51.200;7.252;2022-08-04T13:50:34;8.82;;;4.90;;
64457;SDS011;58438;51.200;7.252;2022-08-04T13:53:23;5.68;;;3.88;;
64457;SDS011;58438;51.200;7.252;2022-08-04T13:56:15;5.60;;;4.18;;
64457;SDS011;58438;51.200;7.252;2022-08-04T13:59:03;7.15;;;3.75;;
64457;SDS011;58438;51.200;7.252;2022-08-04T14:01:58;6.45;;;3.80;;
64457;SDS011;58438;51.200;7.252;2022-08-04T14:04:48;6.32;;;3.90;;
64457;SDS011;58438;51.200;7.252;2022-08-04T14:07:43;7.18;;;4.00;;
64457;SDS011;58438;51.200;7.252;2022-08-04T14:10:32;10.00;;;3.88;;
64457;SDS011;58438;51.200;7.252;2022-08-04T14:13:27;8.85;;;4.18;;
64457;SDS011;58438;51.200;7.252;2022-08-04T14:16:26;13.48;;;3.92;;
64457;SDS011;58438;51.200;7.252;2022-08-04T14:19:14;7.18;;;4.20;;
64457;SDS011;58438;51.200;7.252;2022-08-04T14:22:02;8.20;;;3.70;;
64457;SDS011;58438;51.200;7.252;2022-08-04T14:24:55;7.20;;;3.53;;
64457;SDS011;58438;51.200;7.252;2022-08-04T14:27:44;6.78;;;3.97;;
64457;SDS011;58438;51.200;7.252;2022-08-04T14:30:32;6.25;;;3.83;;
64457;SDS011;58438;51.200;7.252;2022-08-04T14:33:21;9.85;;;4.25;;
64457;SDS011;58438;51.200;7.252;2022-08-04T14:36:37;6.32;;;3.78;;
64457;SDS011;58438;51.200;7.252;2022-08-04T14:39:46;7.75;;;3.83;;
64457;SDS011;58438;51.200;7.252;2022-08-04T14:42:55;5.43;;;3.47;;
64457;SDS011;58438;51.200;7.252;2022-08-04T14:45:42;4.18;;;3.58;;
64457;SDS011;58438;51.200;7.252;2022-08-04T14:48:40;7.97;;;4.40;;
64457;SDS011;58438;51.200;7.252;2022-08-04T14:51:52;5.53;;;3.28;;
64457;SDS011;58438;51.200;7.252;2022-08-04T14:54:40;7.72;;;3.78;;
64457;SDS011;58438;51.200;7.252;2022-08-04T14:57:29;9.00;;;3.97;;
64457;SDS011;58438;51.200;7.252;2022-08-04T15:00:43;9.93;;;3.83;;
64457;SDS011;58438;51.200;7.252;2022-08-04T15:03:31;6.47;;;3.80;;
64457;SDS011;58438;51.200;7.252;2022-08-04T15:06:19;6.63;;;3.42;;
64457;SDS011;58438;51.200;7.252;2022-08-04T15:09:08;10.40;;;3.80;;
64457;SDS011;58438;51.200;7.252;2022-08-04T15:11:56;5.55;;;3.53;;
64457;SDS011;58438;51.200;7.252;2022-08-04T15:14:46;5.72;;;3.72;;
64457;SDS011;58438;51.200;7.252;2022-08-04T15:17:37;8.43;;;3.40;;
64457;SDS011;58438;51.200;7.252;2022-08-04T15:20:25;5.75;;;3.60;;
64457;SDS011;58438;51.200;7.252;2022-08-04T15:23:13;6.35;;;3.58;;
64457;SDS011;58438;51.200;7.252;2022-08-04T15:26:01;5.80;;;3.25;;
64457;SDS011;58438;51.200;7.252;2022-08-04T15:28:50;6.93;;;3.70;;
64457;SDS011;58438;51.200;7.252;2022-08-04T15:31:39;6.90;;;3.25;;
64457;SDS011;58438;51.200;7.252;2022-08-04T15:34:49;7.70;;;3.47;;
64457;SDS011;58438;51.200;7.252;2022-08-04T15:37:38;6.72;;;3.60;;
64457;SDS011;58438;51.200;7.252;2022-08-04T15:40:29;4.90;;;3.70;;
64457;SDS011;58438;51.200;7.252;2022-08-04T15:43:22;6.47;;;3.30;;
64457;SDS011;58438;51.200;7.252;2022-08-04T15:46:15;9.45;;;3.75;;
64457;SDS011;58438;51.200;7.252;2022-08-04T15:49:24;6.10;;;3.80;;
64457;SDS011;58438;51.200;7.252;2022-08-04T15:52:13;7.03;;;3.65;;
64457;SDS011;58438;51.200;7.252;2022-08-04T15:58:18;8.27;;;3.70;;
64457;SDS011;58438;51.200;7.252;2022-08-04T16:01:12;7.55;;;3.78;;
64457;SDS011;58438;51.200;7.252;2022-08-04T16:04:04;5.90;;;3.75;;
64457;SDS011;58438;51.200;7.252;2022-08-04T16:07:07;5.53;;;3.65;;
64457;SDS011;58438;51.200;7.252;2022-08-04T16:10:04;8.23;;;3.78;;
64457;SDS011;58438;51.200;7.252;2022-08-04T16:13:12;8.82;;;4.15;;
64457;SDS011;58438;51.200;7.252;2022-08-04T16:16:00;8.75;;;4.65;;
64457;SDS011;58438;51.200;7.252;2022-08-04T16:18:49;8.38;;;4.20;;
64457;SDS011;58438;51.200;7.252;2022-08-04T16:21:45;9.25;;;4.22;;
64457;SDS011;58438;51.200;7.252;2022-08-04T16:24:34;8.07;;;4.25;;
64457;SDS011;58438;51.200;7.252;2022-08-04T16:27:34;6.53;;;4.28;;
64457;SDS011;58438;51.200;7.252;2022-08-04T16:30:22;7.72;;;4.38;;
64457;SDS011;58438;51.200;7.252;2022-08-04T16:33:09;7.07;;;4.03;;
64457;SDS011;58438;51.200;7.252;2022-08-04T16:35:56;7.15;;;4.38;;
64457;SDS011;58438;51.200;7.252;2022-08-04T16:39:01;9.45;;;4.45;;
64457;SDS011;58438;51.200;7.252;2022-08-04T16:41:50;11.35;;;4.43;;
64457;SDS011;58438;51.200;7.252;2022-08-04T16:44:38;11.77;;;4.60;;
64457;SDS011;58438;51.200;7.252;2022-08-04T16:50:55;11.60;;;4.90;;
64457;SDS011;58438;51.200;7.252;2022-08-04T16:53:50;8.90;;;4.45;;
64457;SDS011;58438;51.200;7.252;2022-08-04T16:56:49;9.15;;;4.47;;
64457;SDS011;58438;51.200;7.252;2022-08-04T16:59:36;7.32;;;4.20;;
64457;SDS011;58438;51.200;7.252;2022-08-04T17:02:26;8.43;;;4.10;;
64457;SDS011;58438;51.200;7.252;2022-08-04T17:05:19;9.18;;;4.32;;
64457;SDS011;58438;51.200;7.252;2022-08-04T17:08:26;9.95;;;4.10;;
64457;SDS011;58438;51.200;7.252;2022-08-04T17:11:16;10.23;;;4.40;;
64457;SDS011;58438;51.200;7.252;2022-08-04T17:14:03;8.10;;;4.15;;
64457;SDS011;58438;51.200;7.252;2022-08-04T17:16:55;8.32;;;4.20;;
64457;SDS011;58438;51.200;7.252;2022-08-04T17:19:46;10.30;;;4.40;;
64457;SDS011;58438;51.200;7.252;2022-08-04T17:22:37;11.23;;;4.32;;
64457;SDS011;58438;51.200;7.252;2022-08-04T17:25:37;10.40;;;4.93;;
64457;SDS011;58438;51.200;7.252;2022-08-04T17:28:56;9.25;;;4.32;;
64457;SDS011;58438;51.200;7.252;2022-08-04T17:31:54;8.80;;;4.40;;
64457;SDS011;58438;51.200;7.252;2022-08-04T17:34:46;6.25;;;4.20;;
64457;SDS011;58438;51.200;7.252;2022-08-04T17:37:40;7.47;;;4.28;;
64457;SDS011;58438;51.200;7.252;2022-08-04T17:40:50;7.97;;;4.20;;
64457;SDS011;58438;51.200;7.252;2022-08-04T17:43:43;9.80;;;4.35;;
64457;SDS011;58438;51.200;7.252;2022-08-04T17:46:58;7.85;;;4.65;;
64457;SDS011;58438;51.200;7.252;2022-08-04T17:53:14;8.35;;;4.80;;
64457;SDS011;58438;51.200;7.252;2022-08-04T17:56:21;7.70;;;4.45;;